createdAt,value
2019-05-29T00:00:41.056Z,16.80
2019-05-29T00:03:10.482Z,16.70
2019-05-29T00:05:39.110Z,16.70
2019-05-29T00:08:08.251Z,16.70
2019-05-29T00:10:36.958Z,16.70
2019-05-29T00:13:06.204Z,16.70
2019-05-29T00:15:35.128Z,16.80
2019-05-29T00:18:03.603Z,16.70
2019-05-29T00:20:32.036Z,16.70
2019-05-29T00:23:00.613Z,16.70
2019-05-29T00:25:29.062Z,16.70
2019-05-29T00:27:57.515Z,16.70
2019-05-29T00:30:26.031Z,16.70
2019-05-29T00:32:54.600Z,16.70
2019-05-29T00:35:23.076Z,16.70
2019-05-29T00:37:51.539Z,16.70
2019-05-29T00:40:20.099Z,16.80
2019-05-29T00:42:48.556Z,16.80
2019-05-29T00:45:17.939Z,16.80
2019-05-29T00:47:46.437Z,16.70
2019-05-29T00:50:16.156Z,16.70
2019-05-29T00:52:44.745Z,16.80
2019-05-29T00:55:14.592Z,16.80
2019-05-29T00:57:43.391Z,16.70
2019-05-29T01:00:13.192Z,16.70
2019-05-29T01:02:41.786Z,16.70
2019-05-29T01:05:11.885Z,16.70
2019-05-29T01:07:40.578Z,16.70
2019-05-29T01:10:10.582Z,16.70
2019-05-29T01:12:39.135Z,16.70
2019-05-29T01:15:07.931Z,16.70
2019-05-29T01:17:36.379Z,16.70
2019-05-29T01:20:08.794Z,16.80
2019-05-29T01:22:37.245Z,16.80
2019-05-29T01:25:06.431Z,16.80
2019-05-29T01:27:34.878Z,16.70
2019-05-29T01:30:04.466Z,16.70
2019-05-29T01:32:32.909Z,16.60
2019-05-29T01:35:01.368Z,16.50
2019-05-29T01:37:29.819Z,16.50
2019-05-29T01:39:58.355Z,16.60
2019-05-29T01:42:27.755Z,16.50
2019-05-29T01:45:07.235Z,16.60
2019-05-29T01:47:27.931Z,16.50
2019-05-29T01:49:56.744Z,16.50
2019-05-29T01:52:25.187Z,16.60
2019-05-29T01:54:53.646Z,16.60
2019-05-29T01:57:22.097Z,16.60
2019-05-29T01:59:50.557Z,16.70
2019-05-29T02:02:19.858Z,16.60
2019-05-29T02:04:48.428Z,16.60
2019-05-29T02:07:17.939Z,16.50
2019-05-29T02:09:46.654Z,16.40
2019-05-29T02:12:16.202Z,16.40
2019-05-29T02:14:44.926Z,16.40
2019-05-29T02:17:13.431Z,16.40
2019-05-29T02:19:41.909Z,16.40
2019-05-29T02:22:10.353Z,16.40
2019-05-29T02:24:39.051Z,16.40
2019-05-29T02:27:07.515Z,16.40
2019-05-29T02:29:35.951Z,16.50
2019-05-29T02:32:04.616Z,16.50
2019-05-29T02:34:33.064Z,16.60
2019-05-29T02:37:01.588Z,16.60
2019-05-29T02:39:30.104Z,16.70
2019-05-29T02:41:58.724Z,16.70
2019-05-29T02:44:27.689Z,16.70
2019-05-29T02:46:56.741Z,16.80
2019-05-29T02:49:25.819Z,16.80
2019-05-29T02:51:54.541Z,16.80
2019-05-29T02:54:24.713Z,16.70
2019-05-29T02:56:53.241Z,16.60
2019-05-29T02:59:23.272Z,16.40
2019-05-29T03:01:52.136Z,16.30
2019-05-29T03:04:21.676Z,16.20
2019-05-29T03:06:50.392Z,16.00
2019-05-29T03:09:18.975Z,16.00
2019-05-29T03:11:47.603Z,15.80
2019-05-29T03:14:16.043Z,15.70
2019-05-29T03:16:44.514Z,15.60
2019-05-29T03:19:13.035Z,15.50
2019-05-29T03:21:41.833Z,15.40
2019-05-29T03:24:10.351Z,15.50
2019-05-29T03:26:38.812Z,15.40
2019-05-29T03:29:07.245Z,15.40
2019-05-29T03:31:43.527Z,15.40
2019-05-29T03:34:05.878Z,15.30
2019-05-29T03:36:42.486Z,15.40
2019-05-29T03:39:06.579Z,15.40
2019-05-29T03:41:35.061Z,15.40
2019-05-29T03:44:03.634Z,15.40
2019-05-29T03:46:41.108Z,15.40
2019-05-29T03:49:02.335Z,15.40
2019-05-29T03:51:32.477Z,15.40
2019-05-29T03:54:01.200Z,15.40
2019-05-29T03:56:30.637Z,15.40
2019-05-29T03:58:59.387Z,15.40
2019-05-29T04:01:29.104Z,15.40
2019-05-29T04:03:58.248Z,15.30
2019-05-29T04:06:27.024Z,15.30
2019-05-29T04:08:55.625Z,15.30
2019-05-29T04:11:24.123Z,15.40
2019-05-29T04:13:52.601Z,15.30
2019-05-29T04:16:23.638Z,15.20
2019-05-29T04:18:53.330Z,15.20
2019-05-29T04:21:24.979Z,15.20
2019-05-29T04:23:55.944Z,15.20
2019-05-29T04:26:25.724Z,15.20
2019-05-29T04:28:54.419Z,15.20
2019-05-29T04:31:23.003Z,15.20
2019-05-29T04:33:51.514Z,15.10
2019-05-29T04:36:20.025Z,15.10
2019-05-29T04:38:48.560Z,15.10
2019-05-29T04:41:17.091Z,15.20
2019-05-29T04:43:48.888Z,15.20
2019-05-29T04:46:17.902Z,15.30
2019-05-29T04:48:46.426Z,15.30
2019-05-29T04:51:14.950Z,15.20
2019-05-29T04:53:43.413Z,15.20
2019-05-29T04:56:12.064Z,15.20
2019-05-29T04:58:40.587Z,15.30
2019-05-29T05:01:09.076Z,15.20
2019-05-29T05:03:37.576Z,15.20
2019-05-29T05:06:06.018Z,15.20
2019-05-29T05:08:35.414Z,15.20
2019-05-29T05:11:03.883Z,15.20
2019-05-29T05:13:33.440Z,15.20
2019-05-29T05:16:03.031Z,15.20
2019-05-29T05:18:31.784Z,15.20
2019-05-29T05:21:00.301Z,15.20
2019-05-29T05:23:30.069Z,15.20
2019-05-29T05:25:58.632Z,15.10
2019-05-29T05:28:27.086Z,15.10
2019-05-29T05:30:55.527Z,15.10
2019-05-29T05:33:23.959Z,15.00
2019-05-29T05:35:52.436Z,15.10
2019-05-29T05:38:20.935Z,15.20
2019-05-29T05:40:49.391Z,15.20
2019-05-29T05:43:24.024Z,15.20
2019-05-29T05:45:48.019Z,15.20
2019-05-29T05:48:16.501Z,15.30
2019-05-29T05:50:44.999Z,15.30
2019-05-29T05:53:13.499Z,15.40
2019-05-29T05:55:41.968Z,15.40
2019-05-29T05:58:10.397Z,15.50
2019-05-29T06:00:39.873Z,15.50
2019-05-29T06:03:08.456Z,15.60
2019-05-29T06:05:38.103Z,15.50
2019-05-29T06:08:06.856Z,15.60
2019-05-29T06:10:36.135Z,15.60
2019-05-29T06:13:04.878Z,15.70
2019-05-29T06:15:34.317Z,15.70
2019-05-29T06:18:19.831Z,15.70
2019-05-29T06:20:33.012Z,15.70
2019-05-29T06:23:01.448Z,15.80
2019-05-29T06:25:29.939Z,15.90
2019-05-29T06:27:58.378Z,16.10
2019-05-29T06:30:27.059Z,16.20
2019-05-29T06:32:55.502Z,16.40
2019-05-29T06:35:24.395Z,16.50
2019-05-29T06:37:52.836Z,16.60
2019-05-29T06:40:40.218Z,16.60
2019-05-29T06:43:14.467Z,16.70
2019-05-29T06:45:44.038Z,16.70
2019-05-29T06:48:15.820Z,16.70
2019-05-29T06:50:44.297Z,16.80
2019-05-29T06:53:12.727Z,16.80
2019-05-29T06:55:42.159Z,16.90
2019-05-29T06:58:10.712Z,17.00
2019-05-29T07:00:39.868Z,17.00
2019-05-29T07:03:09.519Z,17.00
2019-05-29T07:05:37.970Z,17.10
2019-05-29T07:08:18.019Z,17.10
2019-05-29T07:10:38.123Z,17.20
2019-05-29T07:13:07.195Z,17.30
2019-05-29T07:15:36.498Z,17.40
2019-05-29T07:18:05.222Z,17.50
2019-05-29T07:20:33.676Z,17.60
2019-05-29T07:23:02.139Z,17.60
2019-05-29T07:25:30.601Z,17.60
2019-05-29T07:27:59.035Z,17.60
2019-05-29T07:30:29.119Z,17.70
2019-05-29T07:32:59.115Z,17.80
2019-05-29T07:35:27.851Z,17.80
2019-05-29T07:37:56.403Z,17.80
2019-05-29T07:40:24.927Z,17.90
2019-05-29T07:42:56.816Z,18.10
2019-05-29T07:45:23.634Z,18.30
2019-05-29T07:47:52.164Z,18.70
2019-05-29T07:50:20.714Z,18.90
2019-05-29T07:52:49.377Z,19.00
2019-05-29T07:55:18.115Z,19.20
2019-05-29T07:57:47.017Z,19.40
2019-05-29T08:00:16.134Z,19.70
2019-05-29T08:02:45.406Z,20.00
2019-05-29T08:05:14.577Z,20.30
2019-05-29T08:07:43.382Z,20.60
2019-05-29T08:10:12.896Z,20.90
2019-05-29T08:12:46.390Z,21.20
2019-05-29T08:15:11.847Z,21.40
2019-05-29T08:17:40.326Z,21.70
2019-05-29T08:20:09.620Z,22.00
2019-05-29T08:22:38.392Z,22.40
2019-05-29T08:25:07.068Z,22.70
2019-05-29T08:27:35.682Z,23.00
2019-05-29T08:30:07.187Z,23.20
2019-05-29T08:32:35.696Z,23.40
2019-05-29T08:35:06.827Z,23.50
2019-05-29T08:37:35.283Z,23.70
2019-05-29T08:40:05.550Z,23.90
2019-05-29T08:42:34.013Z,24.10
2019-05-29T08:45:02.447Z,24.30
2019-05-29T08:47:30.894Z,24.30
2019-05-29T08:50:16.803Z,24.40
2019-05-29T08:52:29.523Z,24.40
2019-05-29T08:54:58.057Z,24.60
2019-05-29T08:57:26.503Z,24.60
2019-05-29T08:59:54.956Z,24.50
2019-05-29T09:02:23.419Z,24.20
2019-05-29T09:04:53.089Z,24.20
2019-05-29T09:07:22.041Z,24.30
2019-05-29T09:09:51.277Z,24.20
2019-05-29T09:12:20.061Z,24.00
2019-05-29T09:14:50.539Z,23.90
2019-05-29T09:17:18.763Z,23.90
2019-05-29T09:19:47.283Z,23.90
2019-05-29T09:22:16.541Z,23.90
2019-05-29T09:24:45.059Z,24.10
2019-05-29T09:27:14.469Z,24.40
2019-05-29T09:29:43.799Z,24.40
2019-05-29T09:32:13.468Z,24.40
2019-05-29T09:34:42.769Z,24.30
2019-05-29T09:37:11.298Z,24.20
2019-05-29T09:39:39.868Z,24.20
2019-05-29T09:42:08.679Z,24.30
2019-05-29T09:44:39.428Z,24.20
2019-05-29T09:47:07.641Z,24.20
2019-05-29T09:49:36.363Z,24.10
2019-05-29T09:52:05.167Z,24.00
2019-05-29T09:54:33.785Z,23.80
2019-05-29T09:57:02.853Z,23.60
2019-05-29T09:59:31.435Z,23.50
2019-05-29T10:02:04.954Z,23.40
2019-05-29T10:04:30.045Z,23.10
2019-05-29T10:06:59.566Z,22.80
2019-05-29T10:09:28.413Z,22.70
2019-05-29T10:12:00.984Z,22.90
2019-05-29T10:14:27.075Z,23.10
2019-05-29T10:16:58.262Z,23.40
2019-05-29T10:19:25.694Z,23.80
2019-05-29T10:21:54.835Z,24.30
2019-05-29T10:24:24.367Z,24.60
2019-05-29T10:26:52.808Z,25.00
2019-05-29T10:29:21.262Z,25.20
2019-05-29T10:31:51.129Z,25.50
2019-05-29T10:34:19.887Z,25.60
2019-05-29T10:36:51.898Z,25.70
2019-05-29T10:39:18.524Z,25.50
2019-05-29T10:41:47.033Z,25.10
2019-05-29T10:44:15.505Z,24.40
2019-05-29T10:46:47.354Z,24.00
2019-05-29T10:49:14.177Z,23.70
2019-05-29T10:51:57.977Z,23.40
2019-05-29T10:54:12.847Z,23.30
2019-05-29T10:56:41.356Z,23.20
2019-05-29T10:59:09.825Z,23.30
2019-05-29T11:01:38.263Z,23.40
2019-05-29T11:04:07.020Z,23.50
2019-05-29T11:06:39.371Z,23.70
2019-05-29T11:09:07.392Z,23.80
2019-05-29T11:11:35.896Z,23.70
2019-05-29T11:14:04.488Z,23.50
2019-05-29T11:16:32.930Z,23.40
2019-05-29T11:19:01.410Z,23.30
2019-05-29T11:21:29.867Z,23.30
2019-05-29T11:23:58.648Z,23.30
2019-05-29T11:26:27.466Z,23.60
2019-05-29T11:28:56.632Z,24.10
2019-05-29T11:31:25.220Z,24.40
2019-05-29T11:33:54.893Z,24.80
2019-05-29T11:36:23.586Z,25.40
2019-05-29T11:38:54.289Z,26.10
2019-05-29T11:41:26.367Z,26.50
2019-05-29T11:43:54.615Z,26.50
2019-05-29T11:46:23.294Z,26.20
2019-05-29T11:48:53.019Z,26.00
2019-05-29T11:51:21.751Z,25.60
2019-05-29T11:53:51.350Z,25.30
2019-05-29T11:56:20.083Z,25.00
2019-05-29T11:58:48.525Z,24.60
2019-05-29T12:01:17.053Z,24.40
2019-05-29T12:04:07.779Z,24.00
2019-05-29T12:06:15.724Z,23.70
2019-05-29T12:08:44.188Z,23.70
2019-05-29T12:11:12.650Z,24.00
2019-05-29T12:13:41.079Z,24.40
2019-05-29T12:16:09.612Z,24.80
2019-05-29T12:18:38.044Z,25.30
2019-05-29T12:21:06.502Z,25.70
2019-05-29T12:23:34.939Z,26.00
2019-05-29T12:26:20.959Z,26.10
2019-05-29T12:28:33.596Z,26.10
2019-05-29T12:31:03.449Z,26.20
2019-05-29T12:33:32.068Z,26.40
2019-05-29T12:36:01.277Z,26.50
2019-05-29T12:38:29.821Z,26.20
2019-05-29T12:40:59.681Z,25.90
2019-05-29T12:43:28.411Z,25.70
2019-05-29T12:45:57.755Z,25.50
2019-05-29T12:48:26.349Z,25.30
2019-05-29T12:50:56.099Z,25.20
2019-05-29T12:53:30.068Z,25.00
2019-05-29T12:55:56.129Z,24.90
2019-05-29T12:58:24.753Z,24.70
2019-05-29T13:00:54.475Z,24.80
2019-05-29T13:03:23.132Z,24.70
2019-05-29T13:05:51.836Z,24.70
2019-05-29T13:08:20.291Z,24.70
2019-05-29T13:10:48.809Z,24.60
2019-05-29T13:13:17.265Z,24.50
2019-05-29T13:15:45.709Z,24.40
2019-05-29T13:18:14.311Z,24.30
2019-05-29T13:20:42.803Z,24.40
2019-05-29T13:23:11.268Z,24.80
2019-05-29T13:25:39.775Z,25.50
2019-05-29T13:28:08.227Z,26.20
2019-05-29T13:30:38.252Z,26.90
2019-05-29T13:33:08.903Z,27.70
2019-05-29T13:35:37.091Z,28.40
2019-05-29T13:38:05.542Z,28.90
2019-05-29T13:40:33.975Z,29.30
2019-05-29T13:43:11.446Z,29.50
2019-05-29T13:45:32.675Z,29.70
2019-05-29T13:48:01.406Z,30.00
2019-05-29T13:50:30.127Z,30.30
2019-05-29T13:52:59.350Z,30.50
2019-05-29T13:55:28.026Z,30.60
2019-05-29T13:57:57.612Z,30.50
2019-05-29T14:00:33.275Z,30.60
2019-05-29T14:02:58.236Z,30.60
2019-05-29T14:05:26.879Z,30.80
2019-05-29T14:07:55.333Z,30.90
2019-05-29T14:10:23.757Z,31.10
2019-05-29T14:12:52.223Z,31.40
2019-05-29T14:15:20.813Z,31.60
2019-05-29T14:17:49.272Z,31.50
2019-05-29T14:20:18.747Z,31.30
2019-05-29T14:22:48.732Z,30.90
2019-05-29T14:25:17.291Z,30.30
2019-05-29T14:27:45.751Z,29.50
2019-05-29T14:30:14.792Z,28.70
2019-05-29T14:32:43.254Z,28.00
2019-05-29T14:35:13.405Z,27.40
2019-05-29T14:37:42.364Z,26.80
2019-05-29T14:40:12.079Z,26.40
2019-05-29T14:42:41.566Z,26.00
2019-05-29T14:45:10.780Z,25.60
2019-05-29T14:47:40.951Z,25.10
2019-05-29T14:50:11.135Z,24.60
2019-05-29T14:52:39.892Z,24.30
2019-05-29T14:55:11.399Z,24.10
2019-05-29T14:57:39.036Z,24.20
2019-05-29T15:00:22.144Z,24.50
2019-05-29T15:02:40.449Z,25.00
2019-05-29T15:05:09.763Z,25.60
2019-05-29T15:07:38.563Z,26.20
2019-05-29T15:10:19.746Z,26.70
2019-05-29T15:12:38.740Z,26.90
2019-05-29T15:15:08.858Z,26.90
2019-05-29T15:17:37.783Z,27.00
2019-05-29T15:20:10.445Z,26.90
2019-05-29T15:22:40.080Z,26.70
2019-05-29T15:25:18.442Z,26.30
2019-05-29T15:27:39.450Z,26.00
2019-05-29T15:30:11.299Z,25.70
2019-05-29T15:32:40.206Z,25.40
2019-05-29T15:35:13.737Z,25.30
2019-05-29T15:37:39.657Z,25.30
2019-05-29T15:40:09.018Z,25.40
2019-05-29T15:42:37.522Z,25.50
2019-05-29T15:45:08.083Z,25.50
2019-05-29T15:47:36.799Z,25.40
2019-05-29T15:50:11.804Z,25.20
2019-05-29T15:52:41.556Z,25.00
2019-05-29T15:55:27.293Z,25.10
2019-05-29T15:57:40.922Z,25.10
2019-05-29T16:00:11.559Z,24.90
2019-05-29T16:02:40.158Z,24.60
2019-05-29T16:05:11.104Z,24.40
2019-05-29T16:07:39.822Z,24.20
2019-05-29T16:10:13.111Z,24.00
2019-05-29T16:12:40.215Z,23.80
2019-05-29T16:15:11.022Z,23.70
2019-05-29T16:17:39.887Z,23.70
2019-05-29T16:20:12.353Z,23.80
2019-05-29T16:22:40.946Z,23.80
2019-05-29T16:25:10.803Z,23.70
2019-05-29T16:27:39.465Z,23.60
2019-05-29T16:30:08.901Z,23.50
2019-05-29T16:32:37.364Z,23.40
2019-05-29T16:35:07.559Z,23.30
2019-05-29T16:37:35.995Z,23.20
2019-05-29T16:40:14.181Z,23.20
2019-05-29T16:42:42.839Z,23.20
2019-05-29T16:45:12.360Z,23.10
2019-05-29T16:47:40.919Z,23.00
2019-05-29T16:50:09.807Z,22.80
2019-05-29T16:52:38.407Z,22.70
2019-05-29T16:55:07.591Z,22.60
2019-05-29T16:57:36.097Z,22.50
2019-05-29T17:00:10.635Z,22.40
2019-05-29T17:02:39.486Z,22.20
2019-05-29T17:05:08.960Z,21.80
2019-05-29T17:07:39.000Z,22.10
2019-05-29T17:10:09.885Z,22.00
2019-05-29T17:12:38.399Z,21.90
2019-05-29T17:15:11.601Z,21.90
2019-05-29T17:17:40.066Z,21.80
2019-05-29T17:20:10.863Z,21.70
2019-05-29T17:22:39.359Z,21.60
2019-05-29T17:25:08.246Z,21.50
2019-05-29T17:27:36.713Z,21.40
2019-05-29T17:30:09.227Z,21.40
2019-05-29T17:32:37.760Z,21.30
2019-05-29T17:35:07.999Z,21.10
2019-05-29T17:37:36.984Z,21.00
2019-05-29T17:40:07.779Z,20.90
2019-05-29T17:42:36.323Z,20.80
2019-05-29T17:45:09.659Z,20.80
2019-05-29T17:47:39.153Z,20.80
2019-05-29T17:50:07.896Z,20.70
2019-05-29T17:52:36.432Z,20.60
2019-05-29T17:55:06.907Z,20.60
2019-05-29T17:57:35.490Z,20.50
2019-05-29T18:00:06.748Z,20.50
2019-05-29T18:02:50.808Z,20.40
2019-05-29T18:05:06.532Z,20.50
2019-05-29T18:07:34.983Z,20.40
2019-05-29T18:10:04.889Z,20.40
2019-05-29T18:12:33.364Z,20.40
2019-05-29T18:15:08.539Z,20.30
2019-05-29T18:17:37.445Z,20.30
2019-05-29T18:20:14.482Z,20.30
2019-05-29T18:22:41.397Z,20.30
2019-05-29T18:25:10.220Z,20.30
2019-05-29T18:27:38.687Z,20.30
2019-05-29T18:30:08.233Z,20.30
2019-05-29T18:32:37.420Z,20.20
2019-05-29T18:35:10.107Z,20.20
2019-05-29T18:37:38.559Z,20.10
2019-05-29T18:40:12.451Z,20.00
2019-05-29T18:42:39.430Z,20.00
2019-05-29T18:45:20.252Z,20.00
2019-05-29T18:47:39.086Z,20.00
2019-05-29T18:50:08.555Z,19.90
2019-05-29T18:52:37.075Z,19.80
2019-05-29T18:55:07.253Z,19.80
2019-05-29T18:57:35.707Z,19.70
2019-05-29T19:00:09.851Z,19.60
2019-05-29T19:02:38.304Z,19.50
2019-05-29T19:05:07.188Z,19.40
2019-05-29T19:07:35.734Z,19.30
2019-05-29T19:10:07.040Z,19.30
2019-05-29T19:12:36.142Z,19.30
2019-05-29T19:15:06.677Z,19.40
2019-05-29T19:17:35.212Z,19.30
2019-05-29T19:20:04.423Z,19.20
2019-05-29T19:22:33.146Z,19.00
2019-05-29T19:25:01.856Z,18.90
2019-05-29T19:27:39.185Z,18.80
2019-05-29T19:30:00.523Z,18.70
2019-05-29T19:32:29.353Z,18.60
2019-05-29T19:34:57.902Z,18.50
2019-05-29T19:37:27.945Z,18.40
2019-05-29T19:39:56.507Z,18.30
2019-05-29T19:42:26.091Z,18.10
2019-05-29T19:44:54.743Z,18.00
2019-05-29T19:47:24.512Z,17.90
2019-05-29T19:49:53.405Z,17.90
2019-05-29T19:52:22.407Z,17.80
2019-05-29T19:54:51.307Z,17.70
2019-05-29T19:57:19.743Z,17.70
2019-05-29T19:59:48.215Z,17.70
2019-05-29T20:02:17.393Z,17.70
2019-05-29T20:04:45.959Z,17.70
2019-05-29T20:07:14.683Z,17.70
2019-05-29T20:09:43.130Z,17.70
2019-05-29T20:12:11.564Z,17.60
2019-05-29T20:14:40.039Z,17.60
2019-05-29T20:17:08.553Z,17.60
2019-05-29T20:19:39.638Z,17.60
2019-05-29T20:22:07.177Z,17.70
2019-05-29T20:24:36.890Z,17.70
2019-05-29T20:27:05.551Z,17.70
2019-05-29T20:29:53.341Z,17.70
2019-05-29T20:32:21.785Z,17.70
2019-05-29T20:34:50.238Z,17.60
2019-05-29T20:37:18.665Z,17.50
2019-05-29T20:39:47.120Z,17.50
2019-05-29T20:42:15.899Z,17.60
2019-05-29T20:44:44.491Z,17.60
2019-05-29T20:47:13.004Z,17.50
2019-05-29T20:49:42.263Z,17.50
2019-05-29T20:52:10.928Z,17.40
2019-05-29T20:54:39.724Z,17.30
2019-05-29T20:57:11.306Z,17.20
2019-05-29T20:59:42.014Z,17.20
2019-05-29T21:02:10.927Z,17.20
2019-05-29T21:04:40.580Z,17.30
2019-05-29T21:07:09.281Z,17.20
2019-05-29T21:09:38.946Z,17.20
2019-05-29T21:12:07.723Z,17.20
2019-05-29T21:14:37.487Z,17.20
2019-05-29T21:17:06.131Z,17.30
2019-05-29T21:19:34.595Z,17.40
2019-05-29T21:22:03.027Z,17.40
2019-05-29T21:24:31.487Z,17.50
2019-05-29T21:26:59.998Z,17.50
2019-05-29T21:29:28.473Z,17.50
2019-05-29T21:31:56.983Z,17.50
2019-05-29T21:34:25.462Z,17.40
2019-05-29T21:36:54.035Z,17.40
2019-05-29T21:39:22.495Z,17.30
2019-05-29T21:41:51.083Z,17.20
2019-05-29T21:44:19.515Z,17.10
2019-05-29T21:46:47.967Z,17.10
2019-05-29T21:49:16.398Z,17.10
2019-05-29T21:51:45.758Z,17.10
2019-05-29T21:54:14.375Z,17.10
2019-05-29T21:56:43.747Z,17.00
2019-05-29T21:59:12.252Z,16.80
2019-05-29T22:01:41.965Z,16.60
2019-05-29T22:04:10.630Z,16.50
2019-05-29T22:06:40.458Z,16.40
2019-05-29T22:09:12.155Z,16.30
2019-05-29T22:11:40.806Z,16.30
2019-05-29T22:14:09.380Z,16.20
2019-05-29T22:16:37.907Z,16.20
2019-05-29T22:19:06.694Z,16.20
2019-05-29T22:21:35.254Z,16.30
2019-05-29T22:24:03.763Z,16.30
2019-05-29T22:26:32.283Z,16.40
2019-05-29T22:29:15.669Z,16.50
2019-05-29T22:31:30.931Z,16.50
2019-05-29T22:33:59.561Z,16.60
2019-05-29T22:36:28.118Z,16.60
2019-05-29T22:38:57.489Z,16.50
2019-05-29T22:41:25.964Z,16.40
2019-05-29T22:43:55.395Z,16.30
2019-05-29T22:46:24.021Z,16.30
2019-05-29T22:48:53.586Z,16.30
2019-05-29T22:51:22.203Z,16.30
2019-05-29T22:53:52.459Z,16.40
2019-05-29T22:56:20.819Z,16.40
2019-05-29T22:58:49.260Z,16.40
2019-05-29T23:01:17.715Z,16.40
2019-05-29T23:03:46.163Z,16.40
2019-05-29T23:06:14.618Z,16.40
2019-05-29T23:08:43.055Z,16.40
2019-05-29T23:11:11.582Z,16.40
2019-05-29T23:13:40.002Z,16.40
2019-05-29T23:16:08.461Z,16.30
2019-05-29T23:18:36.897Z,16.20
2019-05-29T23:21:05.393Z,16.30
2019-05-29T23:23:33.887Z,16.30
2019-05-29T23:26:03.011Z,16.30
2019-05-29T23:28:31.779Z,16.40
2019-05-29T23:31:01.015Z,16.40
2019-05-29T23:33:30.282Z,16.50
2019-05-29T23:35:59.074Z,16.50
2019-05-29T23:38:27.702Z,16.50
2019-05-29T23:40:57.428Z,16.50
2019-05-29T23:43:26.148Z,16.50
2019-05-29T23:45:55.337Z,16.50
2019-05-29T23:48:23.912Z,16.50
2019-05-29T23:50:53.344Z,16.50
2019-05-29T23:53:21.892Z,16.50
2019-05-29T23:55:50.343Z,16.50
2019-05-29T23:58:19.046Z,16.50
